createdAt,value
2023-03-24T00:00:06.667Z,89.90
2023-03-24T00:01:27.255Z,89.90
2023-03-24T00:02:49.564Z,89.90
2023-03-24T00:04:10.507Z,89.90
2023-03-24T00:05:31.229Z,89.90
2023-03-24T00:06:52.175Z,89.90
2023-03-24T00:08:12.843Z,89.90
2023-03-24T00:09:33.498Z,89.90
2023-03-24T00:10:54.559Z,89.90
2023-03-24T00:12:14.873Z,89.90
2023-03-24T00:13:36.328Z,89.90
2023-03-24T00:14:57.391Z,89.90
2023-03-24T00:16:18.547Z,89.90
2023-03-24T00:17:39.373Z,89.90
2023-03-24T00:19:01.321Z,89.90
2023-03-24T00:20:23.083Z,89.90
2023-03-24T00:21:43.931Z,89.90
2023-03-24T00:23:04.965Z,89.90
2023-03-24T00:24:26.018Z,89.90
2023-03-24T00:25:46.395Z,89.90
2023-03-24T00:27:06.797Z,89.90
2023-03-24T00:28:27.362Z,89.90
2023-03-24T00:29:48.052Z,89.90
2023-03-24T00:31:09.068Z,89.90
2023-03-24T00:32:29.684Z,89.90
2023-03-24T00:33:50.401Z,89.90
2023-03-24T00:35:14.056Z,89.90
2023-03-24T00:36:35.658Z,89.90
2023-03-24T00:37:56.155Z,89.90
2023-03-24T00:39:17.454Z,89.90
2023-03-24T00:40:38.101Z,89.90
2023-03-24T00:41:58.805Z,89.90
2023-03-24T00:43:19.601Z,89.90
2023-03-24T00:44:40.416Z,89.90
2023-03-24T00:46:02.230Z,89.90
2023-03-24T00:47:22.513Z,89.90
2023-03-24T00:48:42.949Z,89.90
2023-03-24T00:50:04.294Z,89.70
2023-03-24T00:51:26.851Z,89.70
2023-03-24T00:52:47.853Z,89.80
2023-03-24T00:54:10.495Z,89.90
2023-03-24T00:55:31.118Z,89.90
2023-03-24T00:56:51.748Z,89.90
2023-03-24T00:58:12.374Z,89.70
2023-03-24T00:59:33.229Z,89.70
2023-03-24T01:00:55.176Z,89.80
2023-03-24T01:02:17.332Z,89.90
2023-03-24T01:03:37.897Z,89.90
2023-03-24T01:04:59.991Z,89.90
2023-03-24T01:06:20.652Z,89.90
2023-03-24T01:07:42.490Z,89.90
2023-03-24T01:09:03.999Z,89.90
2023-03-24T01:10:25.591Z,89.90
2023-03-24T01:11:45.999Z,89.90
2023-03-24T01:13:06.679Z,89.90
2023-03-24T01:14:27.197Z,89.90
2023-03-24T01:15:47.936Z,89.90
2023-03-24T01:17:08.185Z,89.90
2023-03-24T01:18:29.138Z,89.90
2023-03-24T01:19:49.656Z,89.90
2023-03-24T01:21:11.399Z,89.90
2023-03-24T01:22:32.124Z,89.90
2023-03-24T01:23:53.888Z,89.90
2023-03-24T01:25:15.649Z,89.90
2023-03-24T01:26:36.575Z,89.90
2023-03-24T01:27:57.204Z,89.90
2023-03-24T01:29:17.841Z,89.90
2023-03-24T01:30:39.188Z,89.90
2023-03-24T01:31:59.729Z,89.90
2023-03-24T01:33:20.788Z,89.90
2023-03-24T01:34:41.229Z,89.90
2023-03-24T01:36:02.075Z,89.90
2023-03-24T01:37:22.589Z,89.90
2023-03-24T01:38:42.978Z,89.90
2023-03-24T01:40:06.603Z,89.90
2023-03-24T01:41:27.367Z,89.90
2023-03-24T01:42:48.149Z,89.60
2023-03-24T01:44:26.755Z,88.90
2023-03-24T01:46:02.393Z,88.60
2023-03-24T01:47:22.984Z,88.70
2023-03-24T01:48:48.371Z,88.80
2023-03-24T01:50:08.767Z,88.30
2023-03-24T01:51:31.351Z,88.00
2023-03-24T01:52:52.235Z,87.90
2023-03-24T01:54:16.908Z,87.00
2023-03-24T01:55:39.277Z,86.80
2023-03-24T01:57:03.973Z,86.40
2023-03-24T01:58:26.037Z,86.20
2023-03-24T01:59:48.377Z,86.60
2023-03-24T02:01:09.271Z,86.90
2023-03-24T02:02:29.726Z,86.90
2023-03-24T02:03:50.569Z,87.00
2023-03-24T02:05:12.490Z,87.40
2023-03-24T02:06:34.659Z,87.40
2023-03-24T02:08:02.198Z,88.40
2023-03-24T02:09:22.629Z,87.80
2023-03-24T02:10:45.167Z,87.50
2023-03-24T02:12:05.958Z,87.40
2023-03-24T02:13:26.581Z,87.40
2023-03-24T02:14:47.190Z,87.80
2023-03-24T02:16:17.250Z,87.70
2023-03-24T02:17:51.483Z,87.80
2023-03-24T02:19:46.907Z,88.20
2023-03-24T02:21:41.234Z,87.20
2023-03-24T02:23:35.169Z,86.00
2023-03-24T02:25:28.014Z,86.40
2023-03-24T02:27:02.093Z,86.00
2023-03-24T02:28:30.921Z,86.10
2023-03-24T02:30:13.982Z,87.10
2023-03-24T02:31:44.563Z,86.50
2023-03-24T02:33:38.430Z,86.40
2023-03-24T02:35:17.841Z,87.00
2023-03-24T02:37:03.114Z,86.40
2023-03-24T02:38:47.315Z,86.30
2023-03-24T02:40:33.763Z,86.60
2023-03-24T02:41:56.819Z,86.00
2023-03-24T02:43:22.009Z,86.60
2023-03-24T02:44:47.047Z,87.10
2023-03-24T02:46:12.583Z,86.90
2023-03-24T02:47:41.721Z,87.20
2023-03-24T02:49:09.519Z,86.80
2023-03-24T02:50:32.455Z,86.50
2023-03-24T02:51:57.980Z,86.60
2023-03-24T02:53:23.388Z,86.50
2023-03-24T02:54:46.986Z,86.90
2023-03-24T02:56:12.013Z,87.20
2023-03-24T02:57:35.290Z,87.40
2023-03-24T02:58:58.821Z,87.20
2023-03-24T03:00:23.479Z,87.80
2023-03-24T03:01:47.188Z,87.80
2023-03-24T03:03:11.710Z,87.30
2023-03-24T03:04:34.060Z,87.50
2023-03-24T03:05:57.135Z,87.60
2023-03-24T03:07:19.779Z,87.80
2023-03-24T03:08:41.303Z,87.30
2023-03-24T03:10:06.078Z,87.00
2023-03-24T03:11:28.053Z,87.30
2023-03-24T03:12:52.665Z,87.30
2023-03-24T03:14:16.135Z,87.60
2023-03-24T03:15:39.419Z,87.40
2023-03-24T03:17:01.882Z,87.60
2023-03-24T03:18:27.292Z,87.60
2023-03-24T03:19:50.779Z,87.70
2023-03-24T03:21:13.599Z,87.70
2023-03-24T03:22:39.521Z,87.40
2023-03-24T03:24:03.580Z,87.00
2023-03-24T03:25:26.580Z,86.70
2023-03-24T03:26:48.795Z,86.70
2023-03-24T03:28:10.730Z,86.60
2023-03-24T03:29:35.735Z,86.80
2023-03-24T03:30:58.190Z,86.50
2023-03-24T03:32:22.353Z,86.40
2023-03-24T03:33:46.229Z,86.40
2023-03-24T03:35:10.397Z,86.80
2023-03-24T03:36:33.584Z,86.70
2023-03-24T03:37:58.679Z,86.40
2023-03-24T03:39:23.286Z,86.80
2023-03-24T03:40:50.576Z,87.00
2023-03-24T03:42:12.414Z,87.10
2023-03-24T03:43:34.051Z,87.10
2023-03-24T03:44:54.665Z,87.10
2023-03-24T03:46:15.442Z,87.10
2023-03-24T03:47:36.235Z,87.20
2023-03-24T03:48:56.722Z,87.10
2023-03-24T03:50:17.731Z,87.00
2023-03-24T03:51:38.210Z,86.60
2023-03-24T03:52:58.714Z,86.70
2023-03-24T03:54:19.705Z,86.50
2023-03-24T03:55:40.099Z,86.60
2023-03-24T03:57:00.753Z,86.40
2023-03-24T03:58:22.453Z,86.40
2023-03-24T03:59:43.294Z,86.40
2023-03-24T04:01:07.591Z,86.30
2023-03-24T04:02:35.442Z,85.90
2023-03-24T04:04:24.559Z,85.80
2023-03-24T04:05:48.525Z,85.70
2023-03-24T04:07:15.094Z,85.90
2023-03-24T04:08:44.967Z,85.60
2023-03-24T04:10:11.652Z,85.70
2023-03-24T04:11:40.016Z,85.70
2023-03-24T04:13:11.177Z,85.90
2023-03-24T04:15:01.147Z,84.80
2023-03-24T04:16:28.213Z,84.80
2023-03-24T04:18:08.901Z,84.80
2023-03-24T04:19:38.146Z,84.70
2023-03-24T04:21:08.311Z,84.80
2023-03-24T04:22:39.989Z,85.20
2023-03-24T04:24:11.098Z,85.20
2023-03-24T04:25:37.769Z,84.90
2023-03-24T04:27:05.230Z,84.60
2023-03-24T04:28:32.997Z,84.80
2023-03-24T04:30:02.540Z,84.40
2023-03-24T04:31:26.882Z,84.50
2023-03-24T04:32:51.320Z,84.40
2023-03-24T04:34:16.056Z,84.60
2023-03-24T04:35:40.487Z,84.40
2023-03-24T04:37:05.502Z,84.40
2023-03-24T04:38:27.433Z,84.50
2023-03-24T04:39:50.049Z,84.70
2023-03-24T04:41:11.004Z,84.50
2023-03-24T04:42:34.472Z,84.80
2023-03-24T04:43:55.237Z,84.70
2023-03-24T04:45:18.002Z,85.20
2023-03-24T04:46:39.060Z,85.60
2023-03-24T04:48:01.509Z,85.50
2023-03-24T04:49:22.094Z,85.70
2023-03-24T04:50:53.634Z,86.10
2023-03-24T04:52:16.231Z,86.20
2023-03-24T04:53:38.160Z,86.20
2023-03-24T04:54:58.769Z,86.00
2023-03-24T04:56:29.530Z,86.00
2023-03-24T04:57:49.902Z,86.20
2023-03-24T04:59:10.517Z,86.30
2023-03-24T05:00:32.438Z,86.60
2023-03-24T05:01:52.784Z,86.50
2023-03-24T05:03:14.900Z,86.60
2023-03-24T05:04:35.053Z,86.70
2023-03-24T05:05:55.284Z,86.50
2023-03-24T05:07:15.950Z,86.40
2023-03-24T05:08:36.158Z,86.20
2023-03-24T05:09:56.469Z,86.00
2023-03-24T05:11:17.213Z,86.00
2023-03-24T05:12:37.862Z,86.10
2023-03-24T05:13:58.542Z,85.90
2023-03-24T05:15:19.174Z,86.00
2023-03-24T05:16:41.205Z,85.80
2023-03-24T05:18:02.582Z,85.80
2023-03-24T05:19:23.477Z,85.70
2023-03-24T05:20:44.463Z,85.60
2023-03-24T05:22:05.065Z,85.40
2023-03-24T05:23:25.569Z,85.10
2023-03-24T05:24:46.202Z,85.10
2023-03-24T05:26:07.266Z,85.10
2023-03-24T05:27:27.796Z,84.90
2023-03-24T05:28:48.430Z,85.00
2023-03-24T05:30:10.114Z,84.80
2023-03-24T05:31:30.794Z,84.50
2023-03-24T05:32:52.853Z,84.20
2023-03-24T05:34:13.865Z,84.80
2023-03-24T05:35:34.670Z,84.80
2023-03-24T05:36:55.692Z,84.50
2023-03-24T05:38:16.031Z,84.50
2023-03-24T05:39:36.417Z,84.90
2023-03-24T05:40:57.859Z,84.60
2023-03-24T05:42:18.320Z,84.40
2023-03-24T05:43:39.131Z,84.10
2023-03-24T05:44:59.633Z,84.10
2023-03-24T05:46:19.968Z,84.20
2023-03-24T05:47:40.582Z,84.30
2023-03-24T05:49:02.243Z,84.20
2023-03-24T05:50:23.429Z,83.60
2023-03-24T05:51:43.886Z,83.60
2023-03-24T05:53:04.670Z,83.40
2023-03-24T05:54:28.064Z,83.50
2023-03-24T05:55:48.511Z,83.40
2023-03-24T05:57:12.430Z,83.50
2023-03-24T05:58:32.729Z,83.50
2023-03-24T05:59:53.337Z,82.90
2023-03-24T06:01:13.799Z,83.20
2023-03-24T06:02:34.649Z,82.90
2023-03-24T06:03:55.372Z,83.20
2023-03-24T06:05:17.528Z,83.30
2023-03-24T06:06:37.891Z,83.30
2023-03-24T06:07:59.155Z,83.30
2023-03-24T06:09:22.873Z,82.90
2023-03-24T06:10:43.375Z,83.20
2023-03-24T06:12:04.452Z,83.10
2023-03-24T06:13:25.048Z,83.20
2023-03-24T06:14:47.335Z,83.20
2023-03-24T06:16:08.881Z,82.90
2023-03-24T06:17:29.453Z,82.90
2023-03-24T06:18:49.688Z,82.90
2023-03-24T06:20:11.593Z,83.20
2023-03-24T06:21:35.259Z,83.20
2023-03-24T06:22:56.144Z,83.00
2023-03-24T06:24:17.106Z,82.70
2023-03-24T06:25:37.702Z,82.80
2023-03-24T06:26:58.349Z,82.80
2023-03-24T06:28:18.951Z,82.70
2023-03-24T06:29:39.812Z,82.30
2023-03-24T06:31:00.625Z,82.70
2023-03-24T06:32:21.438Z,82.80
2023-03-24T06:33:42.591Z,82.40
2023-03-24T06:35:03.216Z,82.70
2023-03-24T06:36:23.684Z,82.60
2023-03-24T06:37:45.858Z,82.60
2023-03-24T06:39:06.237Z,82.70
2023-03-24T06:40:27.072Z,83.20
2023-03-24T06:41:47.716Z,82.60
2023-03-24T06:43:08.305Z,82.60
2023-03-24T06:44:28.774Z,82.70
2023-03-24T06:45:49.423Z,83.10
2023-03-24T06:47:09.824Z,83.10
2023-03-24T06:48:30.442Z,83.00
2023-03-24T06:49:51.081Z,83.00
2023-03-24T06:51:11.556Z,83.00
2023-03-24T06:52:32.132Z,82.90
2023-03-24T06:53:54.230Z,82.70
2023-03-24T06:55:14.674Z,83.00
2023-03-24T06:56:35.314Z,83.00
2023-03-24T06:57:55.978Z,82.90
2023-03-24T06:59:16.579Z,83.20
2023-03-24T07:00:36.986Z,83.40
2023-03-24T07:01:57.838Z,83.10
2023-03-24T07:03:18.611Z,83.10
2023-03-24T07:04:39.180Z,82.90
2023-03-24T07:06:00.235Z,82.80
2023-03-24T07:07:53.302Z,82.60
2023-03-24T07:09:03.858Z,82.60
2023-03-24T07:10:24.621Z,82.90
2023-03-24T07:11:45.193Z,82.80
2023-03-24T07:13:05.563Z,83.00
2023-03-24T07:14:26.478Z,83.20
2023-03-24T07:15:46.998Z,83.40
2023-03-24T07:17:08.689Z,83.10
2023-03-24T07:18:29.430Z,83.20
2023-03-24T07:19:50.077Z,83.20
2023-03-24T07:21:10.492Z,82.90
2023-03-24T07:22:31.369Z,82.30
2023-03-24T07:23:51.737Z,82.50
2023-03-24T07:25:13.710Z,82.90
2023-03-24T07:26:34.360Z,82.90
2023-03-24T07:27:55.263Z,81.90
2023-03-24T07:29:15.754Z,81.50
2023-03-24T07:30:40.465Z,81.80
2023-03-24T07:32:01.824Z,81.60
2023-03-24T07:33:22.573Z,81.70
2023-03-24T07:34:43.025Z,81.00
2023-03-24T07:36:03.874Z,80.80
2023-03-24T07:37:24.614Z,81.30
2023-03-24T07:38:45.290Z,81.60
2023-03-24T07:40:07.322Z,81.30
2023-03-24T07:41:29.223Z,81.30
2023-03-24T07:42:50.010Z,81.10
2023-03-24T07:44:10.730Z,81.50
2023-03-24T07:45:31.798Z,81.30
2023-03-24T07:46:52.283Z,81.30
2023-03-24T07:48:12.911Z,81.40
2023-03-24T07:49:33.642Z,81.10
2023-03-24T07:50:54.183Z,80.40
2023-03-24T07:52:15.193Z,80.30
2023-03-24T07:53:35.961Z,80.30
2023-03-24T07:54:56.566Z,80.30
2023-03-24T07:56:17.232Z,80.90
2023-03-24T07:57:41.139Z,80.60
2023-03-24T07:59:01.921Z,80.50
2023-03-24T08:00:23.415Z,79.80
2023-03-24T08:01:43.881Z,80.40
2023-03-24T08:03:04.533Z,80.50
2023-03-24T08:04:27.627Z,80.10
2023-03-24T08:05:48.650Z,80.50
2023-03-24T08:07:09.617Z,80.50
2023-03-24T08:08:30.132Z,80.20
2023-03-24T08:09:50.516Z,79.80
2023-03-24T08:11:10.954Z,80.40
2023-03-24T08:12:31.882Z,80.50
2023-03-24T08:13:53.627Z,79.60
2023-03-24T08:15:14.527Z,79.30
2023-03-24T08:16:35.080Z,79.20
2023-03-24T08:17:55.577Z,79.10
2023-03-24T08:19:16.541Z,79.20
2023-03-24T08:20:36.974Z,79.40
2023-03-24T08:21:57.673Z,79.30
2023-03-24T08:23:18.185Z,78.50
2023-03-24T08:24:38.851Z,79.60
2023-03-24T08:25:59.133Z,79.50
2023-03-24T08:27:19.701Z,79.20
2023-03-24T08:28:40.546Z,78.10
2023-03-24T08:30:04.381Z,78.50
2023-03-24T08:31:24.959Z,79.40
2023-03-24T08:32:45.615Z,78.60
2023-03-24T08:34:06.574Z,78.80
2023-03-24T08:35:29.537Z,78.20
2023-03-24T08:36:50.090Z,78.30
2023-03-24T08:38:10.687Z,78.20
2023-03-24T08:39:31.370Z,78.40
2023-03-24T08:40:51.701Z,78.50
2023-03-24T08:42:12.352Z,78.70
2023-03-24T08:43:33.957Z,78.20
2023-03-24T08:44:54.550Z,78.30
2023-03-24T08:46:16.258Z,78.60
2023-03-24T08:47:36.956Z,77.70
2023-03-24T08:48:57.474Z,77.20
2023-03-24T08:50:19.282Z,77.60
2023-03-24T08:51:39.871Z,77.90
2023-03-24T08:53:01.068Z,77.60
2023-03-24T08:54:21.579Z,78.00
2023-03-24T08:55:42.544Z,77.50
2023-03-24T08:57:03.303Z,77.40
2023-03-24T08:58:23.989Z,77.40
2023-03-24T08:59:44.668Z,76.80
2023-03-24T09:01:06.466Z,76.70
2023-03-24T09:02:28.131Z,76.00
2023-03-24T09:03:48.846Z,76.30
2023-03-24T09:05:09.880Z,76.20
2023-03-24T09:06:31.068Z,76.30
2023-03-24T09:07:51.880Z,76.50
2023-03-24T09:09:12.174Z,76.40
2023-03-24T09:10:32.523Z,75.90
2023-03-24T09:11:53.044Z,75.40
2023-03-24T09:13:14.140Z,75.30
2023-03-24T09:14:35.141Z,75.40
2023-03-24T09:15:59.319Z,75.40
2023-03-24T09:17:19.837Z,75.80
2023-03-24T09:18:41.845Z,75.50
2023-03-24T09:20:03.221Z,74.10
2023-03-24T09:21:23.892Z,74.30
2023-03-24T09:22:45.708Z,74.80
2023-03-24T09:24:07.365Z,75.10
2023-03-24T09:25:29.186Z,74.50
2023-03-24T09:26:49.855Z,75.00
2023-03-24T09:28:10.485Z,74.40
2023-03-24T09:29:31.384Z,74.80
2023-03-24T09:30:56.880Z,75.00
2023-03-24T09:32:17.347Z,75.30
2023-03-24T09:33:37.893Z,75.60
2023-03-24T09:35:33.753Z,75.70
2023-03-24T09:36:55.835Z,75.70
2023-03-24T09:38:16.537Z,74.00
2023-03-24T09:39:37.351Z,74.90
2023-03-24T09:40:59.507Z,74.70
2023-03-24T09:42:22.470Z,74.70
2023-03-24T09:43:46.290Z,74.70
2023-03-24T09:45:12.568Z,74.50
2023-03-24T09:46:35.702Z,74.50
2023-03-24T09:48:00.030Z,73.60
2023-03-24T09:49:24.452Z,73.50
2023-03-24T09:50:51.501Z,72.20
2023-03-24T09:52:14.857Z,72.00
2023-03-24T09:53:39.404Z,72.30
2023-03-24T09:55:00.590Z,72.50
2023-03-24T09:56:21.650Z,72.30
2023-03-24T09:57:44.258Z,73.10
2023-03-24T09:59:06.565Z,72.90
2023-03-24T10:00:29.125Z,72.80
2023-03-24T10:01:49.642Z,73.90
2023-03-24T10:03:18.252Z,74.30
2023-03-24T10:04:39.185Z,74.10
2023-03-24T10:06:05.133Z,73.30
2023-03-24T10:07:32.007Z,73.20
2023-03-24T10:09:01.524Z,72.00
2023-03-24T10:10:28.265Z,71.70
2023-03-24T10:11:55.801Z,71.70
2023-03-24T10:13:21.701Z,72.00
2023-03-24T10:14:56.053Z,72.20
2023-03-24T10:16:23.033Z,71.80
2023-03-24T10:17:51.103Z,71.80
2023-03-24T10:19:24.600Z,72.60
2023-03-24T10:20:50.196Z,72.70
2023-03-24T10:22:15.141Z,72.60
2023-03-24T10:23:41.270Z,72.00
2023-03-24T10:25:08.351Z,72.60
2023-03-24T10:26:36.797Z,72.40
2023-03-24T10:28:00.014Z,72.60
2023-03-24T10:29:23.496Z,72.60
2023-03-24T10:30:45.704Z,73.00
2023-03-24T10:32:15.290Z,73.10
2023-03-24T10:33:40.348Z,73.60
2023-03-24T10:35:01.910Z,72.90
2023-03-24T10:36:22.731Z,72.80
2023-03-24T10:37:43.240Z,73.30
2023-03-24T10:39:16.584Z,73.40
2023-03-24T10:40:41.074Z,72.90
2023-03-24T10:42:02.197Z,72.80
2023-03-24T10:43:23.832Z,73.30
2023-03-24T10:44:44.893Z,72.50
2023-03-24T10:46:06.209Z,72.70
2023-03-24T10:47:30.704Z,72.00
2023-03-24T10:48:53.922Z,71.20
2023-03-24T10:50:15.833Z,71.70
2023-03-24T10:51:37.355Z,71.90
2023-03-24T10:52:57.962Z,71.90
2023-03-24T10:54:21.610Z,71.20
2023-03-24T10:55:42.006Z,71.80
2023-03-24T10:57:04.323Z,71.50
2023-03-24T10:58:30.383Z,71.70
2023-03-24T10:59:54.017Z,71.90
2023-03-24T11:01:26.589Z,71.60
2023-03-24T11:02:56.057Z,71.70
2023-03-24T11:04:19.951Z,72.00
2023-03-24T11:05:41.765Z,72.10
2023-03-24T11:07:03.575Z,72.00
2023-03-24T11:08:27.425Z,71.80
2023-03-24T11:09:58.044Z,71.90
2023-03-24T11:11:29.913Z,71.80
2023-03-24T11:13:00.693Z,71.90
2023-03-24T11:14:25.985Z,71.60
2023-03-24T11:15:54.088Z,71.70
2023-03-24T11:17:15.405Z,71.50
2023-03-24T11:18:36.055Z,71.30
2023-03-24T11:19:57.476Z,71.80
2023-03-24T11:21:18.669Z,72.40
2023-03-24T11:22:39.579Z,72.20
2023-03-24T11:24:01.652Z,71.50
2023-03-24T11:25:26.794Z,71.20
2023-03-24T11:26:59.154Z,70.90
2023-03-24T11:28:23.698Z,70.90
2023-03-24T11:29:48.834Z,71.60
2023-03-24T11:31:11.085Z,71.60
2023-03-24T11:32:32.050Z,70.90
2023-03-24T11:33:58.275Z,70.90
2023-03-24T11:35:19.052Z,70.80
2023-03-24T11:36:46.794Z,70.90
2023-03-24T11:38:07.455Z,70.40
2023-03-24T11:39:29.333Z,70.20
2023-03-24T11:40:55.867Z,70.80
2023-03-24T11:42:17.592Z,71.20
2023-03-24T11:43:38.231Z,71.40
2023-03-24T11:44:58.706Z,71.70
2023-03-24T11:46:20.069Z,71.20
2023-03-24T11:47:41.314Z,70.80
2023-03-24T11:49:01.779Z,70.50
2023-03-24T11:50:25.736Z,70.40
2023-03-24T11:51:51.703Z,70.40
2023-03-24T11:53:16.059Z,70.80
2023-03-24T11:54:36.993Z,70.70
2023-03-24T11:56:03.282Z,70.40
2023-03-24T11:57:33.340Z,70.60
2023-03-24T11:58:59.187Z,70.80
2023-03-24T12:00:22.307Z,70.60
2023-03-24T12:01:48.042Z,70.40
2023-03-24T12:03:20.842Z,71.00
2023-03-24T12:05:14.678Z,72.00
2023-03-24T12:06:49.570Z,72.40
2023-03-24T12:08:23.787Z,72.20
2023-03-24T12:09:47.954Z,72.50
2023-03-24T12:11:12.977Z,72.20
2023-03-24T12:12:38.353Z,72.10
2023-03-24T12:14:01.105Z,71.20
2023-03-24T12:15:31.665Z,71.00
2023-03-24T12:16:54.551Z,71.20
2023-03-24T12:18:31.532Z,70.20
2023-03-24T12:20:08.766Z,70.50
2023-03-24T12:21:41.539Z,70.50
2023-03-24T12:23:07.893Z,70.40
2023-03-24T12:24:38.977Z,70.60
2023-03-24T12:26:08.637Z,70.10
2023-03-24T12:27:37.365Z,69.90
2023-03-24T12:29:03.186Z,69.70
2023-03-24T12:30:28.354Z,68.80
2023-03-24T12:32:09.073Z,69.10
2023-03-24T12:33:38.646Z,69.10
2023-03-24T12:35:26.299Z,69.70
2023-03-24T12:36:50.076Z,69.90
2023-03-24T12:38:34.684Z,70.10
2023-03-24T12:40:03.992Z,70.20
2023-03-24T12:41:47.132Z,70.70
2023-03-24T12:43:15.463Z,69.50
2023-03-24T12:44:54.574Z,69.40
2023-03-24T12:46:40.605Z,68.90
2023-03-24T12:48:19.248Z,68.60
2023-03-24T12:49:45.095Z,68.40
2023-03-24T12:51:17.865Z,69.00
2023-03-24T12:53:05.105Z,69.20
2023-03-24T12:54:34.280Z,69.10
2023-03-24T12:55:57.689Z,69.30
2023-03-24T12:57:18.763Z,69.30
2023-03-24T12:58:42.722Z,69.70
2023-03-24T13:00:06.802Z,69.90
2023-03-24T13:01:33.729Z,69.80
2023-03-24T13:02:57.575Z,69.90
2023-03-24T13:04:21.761Z,69.10
2023-03-24T13:05:43.927Z,69.40
2023-03-24T13:07:08.502Z,69.30
2023-03-24T13:08:29.770Z,69.50
2023-03-24T13:09:53.884Z,69.80
2023-03-24T13:11:30.118Z,70.20
2023-03-24T13:12:56.315Z,70.30
2023-03-24T13:14:23.000Z,70.60
2023-03-24T13:15:45.635Z,69.50
2023-03-24T13:17:13.133Z,68.60
2023-03-24T13:18:36.425Z,69.00
2023-03-24T13:19:57.751Z,68.60
2023-03-24T13:21:19.152Z,66.80
2023-03-24T13:22:40.428Z,66.00
2023-03-24T13:24:04.085Z,66.40
2023-03-24T13:25:30.238Z,65.00
2023-03-24T13:26:56.794Z,64.40
2023-03-24T13:28:22.431Z,63.80
2023-03-24T13:30:08.752Z,64.50
2023-03-24T13:31:33.030Z,64.90
2023-03-24T13:32:55.846Z,64.90
2023-03-24T13:34:24.946Z,65.50
2023-03-24T13:35:54.587Z,65.40
2023-03-24T13:37:18.193Z,65.90
2023-03-24T13:38:40.179Z,66.40
2023-03-24T13:40:01.496Z,66.80
2023-03-24T13:41:23.200Z,67.80
2023-03-24T13:42:47.565Z,68.20
2023-03-24T13:44:15.327Z,67.80
2023-03-24T13:45:45.023Z,68.00
2023-03-24T13:47:10.079Z,68.40
2023-03-24T13:48:35.592Z,67.90
2023-03-24T13:50:00.565Z,67.80
2023-03-24T13:51:24.488Z,67.80
2023-03-24T13:52:47.661Z,67.90
2023-03-24T13:54:14.119Z,67.80
2023-03-24T13:55:36.973Z,68.70
2023-03-24T13:57:04.318Z,68.70
2023-03-24T13:58:28.001Z,68.70
2023-03-24T14:00:02.168Z,68.00
2023-03-24T14:01:35.321Z,68.20
2023-03-24T14:02:57.009Z,68.40
2023-03-24T14:04:25.554Z,67.90
2023-03-24T14:05:59.396Z,68.00
2023-03-24T14:07:31.555Z,67.50
2023-03-24T14:09:01.843Z,67.90
2023-03-24T14:10:41.705Z,68.20
2023-03-24T14:12:23.278Z,68.00
2023-03-24T14:13:47.516Z,67.30
2023-03-24T14:15:21.193Z,66.40
2023-03-24T14:16:44.686Z,66.40
2023-03-24T14:18:15.450Z,66.60
2023-03-24T14:19:40.182Z,66.10
2023-03-24T14:21:01.501Z,66.40
2023-03-24T14:22:23.220Z,65.70
2023-03-24T14:23:44.905Z,66.20
2023-03-24T14:25:17.923Z,65.30
2023-03-24T14:26:38.294Z,64.70
2023-03-24T14:28:21.400Z,64.30
2023-03-24T14:29:48.090Z,64.80
2023-03-24T14:31:16.986Z,65.30
2023-03-24T14:32:40.127Z,65.40
2023-03-24T14:34:06.086Z,65.50
2023-03-24T14:35:33.205Z,66.10
2023-03-24T14:36:58.490Z,65.60
2023-03-24T14:38:22.923Z,65.60
2023-03-24T14:39:45.371Z,65.90
2023-03-24T14:41:08.680Z,65.70
2023-03-24T14:42:56.728Z,65.20
2023-03-24T14:44:54.104Z,65.70
2023-03-24T14:46:39.726Z,65.80
2023-03-24T14:48:01.824Z,66.00
2023-03-24T14:49:26.161Z,65.80
2023-03-24T14:50:46.747Z,65.30
2023-03-24T14:52:12.700Z,65.70
2023-03-24T14:53:41.478Z,65.40
2023-03-24T14:55:04.405Z,66.20
2023-03-24T14:56:29.839Z,66.00
2023-03-24T14:57:52.939Z,66.20
2023-03-24T14:59:22.612Z,66.20
2023-03-24T15:00:58.020Z,65.70
2023-03-24T15:02:34.936Z,65.40
2023-03-24T15:04:00.837Z,64.80
2023-03-24T15:05:27.818Z,64.80
2023-03-24T15:06:48.927Z,65.40
2023-03-24T15:08:14.432Z,65.60
2023-03-24T15:09:36.977Z,65.60
2023-03-24T15:11:00.721Z,64.60
2023-03-24T15:12:21.407Z,64.70
2023-03-24T15:13:43.158Z,64.90
2023-03-24T15:15:03.684Z,65.30
2023-03-24T15:16:27.085Z,65.70
2023-03-24T15:17:48.613Z,64.00
2023-03-24T15:19:10.816Z,64.90
2023-03-24T15:20:35.189Z,65.10
2023-03-24T15:22:01.005Z,64.00
2023-03-24T15:23:23.450Z,64.50
2023-03-24T15:24:47.497Z,65.10
2023-03-24T15:26:12.468Z,64.80
2023-03-24T15:27:32.917Z,64.40
2023-03-24T15:28:58.243Z,65.20
2023-03-24T15:30:18.796Z,64.90
2023-03-24T15:31:41.446Z,64.80
2023-03-24T15:33:01.940Z,64.80
2023-03-24T15:34:27.114Z,65.40
2023-03-24T15:35:56.410Z,64.30
2023-03-24T15:37:21.302Z,64.10
2023-03-24T15:38:46.513Z,64.00
2023-03-24T15:40:28.048Z,64.70
2023-03-24T15:41:51.681Z,64.50
2023-03-24T15:43:18.526Z,64.60
2023-03-24T15:44:39.806Z,65.10
2023-03-24T15:46:11.107Z,64.70
2023-03-24T15:47:37.956Z,64.40
2023-03-24T15:48:59.525Z,64.90
2023-03-24T15:50:32.314Z,65.00
2023-03-24T15:51:56.736Z,64.40
2023-03-24T15:53:23.860Z,63.70
2023-03-24T15:54:44.965Z,63.20
2023-03-24T15:56:13.132Z,62.90
2023-03-24T15:57:39.767Z,63.20
2023-03-24T15:59:08.191Z,62.80
2023-03-24T16:00:31.590Z,62.90
2023-03-24T16:01:52.042Z,62.90
2023-03-24T16:03:13.380Z,63.60
2023-03-24T16:04:33.729Z,63.70
2023-03-24T16:05:55.685Z,64.20
2023-03-24T16:07:23.201Z,64.90
2023-03-24T16:08:44.001Z,64.60
2023-03-24T16:10:08.368Z,65.20
2023-03-24T16:11:29.481Z,65.70
2023-03-24T16:12:51.498Z,65.60
2023-03-24T16:14:20.699Z,65.40
2023-03-24T16:15:42.116Z,65.50
2023-03-24T16:17:02.574Z,66.30
2023-03-24T16:18:26.200Z,66.40
2023-03-24T16:19:46.888Z,66.80
2023-03-24T16:21:12.461Z,66.80
2023-03-24T16:22:32.951Z,67.00
2023-03-24T16:23:55.572Z,67.30
2023-03-24T16:25:16.184Z,67.50
2023-03-24T16:26:37.135Z,67.80
2023-03-24T16:27:58.950Z,67.30
2023-03-24T16:29:21.279Z,67.30
2023-03-24T16:30:43.418Z,67.50
2023-03-24T16:32:04.615Z,67.60
2023-03-24T16:33:25.079Z,67.30
2023-03-24T16:34:45.573Z,66.80
2023-03-24T16:36:06.826Z,66.30
2023-03-24T16:37:27.448Z,66.10
2023-03-24T16:38:48.776Z,66.00
2023-03-24T16:40:20.738Z,65.20
2023-03-24T16:41:41.130Z,65.30
2023-03-24T16:43:03.223Z,65.20
2023-03-24T16:44:33.477Z,65.20
2023-03-24T16:45:54.193Z,65.10
2023-03-24T16:47:14.835Z,64.90
2023-03-24T16:48:35.645Z,65.00
2023-03-24T16:49:56.427Z,64.90
2023-03-24T16:51:17.328Z,64.70
2023-03-24T16:52:40.038Z,64.90
2023-03-24T16:54:00.804Z,64.80
2023-03-24T16:55:21.564Z,65.10
2023-03-24T16:56:42.290Z,65.00
2023-03-24T16:58:04.734Z,64.70
2023-03-24T16:59:27.996Z,65.10
2023-03-24T17:00:49.071Z,64.30
2023-03-24T17:02:09.856Z,63.50
2023-03-24T17:03:31.091Z,63.40
2023-03-24T17:04:51.586Z,63.70
2023-03-24T17:06:12.848Z,63.60
2023-03-24T17:07:33.094Z,63.40
2023-03-24T17:08:58.657Z,63.40
2023-03-24T17:10:19.440Z,62.70
2023-03-24T17:11:41.844Z,63.10
2023-03-24T17:13:02.185Z,63.90
2023-03-24T17:14:27.208Z,64.30
2023-03-24T17:15:48.047Z,64.60
2023-03-24T17:17:10.951Z,65.00
2023-03-24T17:18:31.371Z,65.40
2023-03-24T17:19:51.956Z,65.30
2023-03-24T17:21:13.674Z,65.50
2023-03-24T17:22:34.725Z,65.60
2023-03-24T17:23:55.592Z,65.60
2023-03-24T17:25:18.101Z,65.50
2023-03-24T17:26:39.281Z,65.60
2023-03-24T17:28:00.238Z,65.30
2023-03-24T17:29:20.761Z,65.30
2023-03-24T17:30:43.121Z,65.50
2023-03-24T17:32:03.663Z,65.70
2023-03-24T17:33:26.793Z,65.90
2023-03-24T17:34:47.368Z,65.80
2023-03-24T17:36:13.912Z,65.60
2023-03-24T17:37:34.311Z,66.10
2023-03-24T17:38:55.402Z,65.80
2023-03-24T17:40:17.560Z,66.00
2023-03-24T17:41:38.072Z,66.40
2023-03-24T17:42:58.708Z,66.60
2023-03-24T17:44:19.302Z,66.70
2023-03-24T17:45:40.165Z,67.00
2023-03-24T17:47:02.016Z,67.00
2023-03-24T17:48:22.810Z,66.80
2023-03-24T17:49:44.488Z,65.90
2023-03-24T17:51:05.283Z,66.00
2023-03-24T17:52:27.090Z,66.30
2023-03-24T17:53:47.751Z,66.40
2023-03-24T17:55:08.824Z,66.50
2023-03-24T17:56:29.483Z,66.40
2023-03-24T17:57:49.871Z,67.10
2023-03-24T17:59:19.408Z,67.00
2023-03-24T18:00:39.844Z,67.00
2023-03-24T18:02:01.829Z,67.10